createdAt,value
2018-09-03T00:02:05.011Z,8.97
2018-09-03T00:04:33.461Z,8.37
2018-09-03T00:07:01.680Z,8.30
2018-09-03T00:09:34.192Z,9.13
2018-09-03T00:12:02.398Z,8.20
2018-09-03T00:14:30.606Z,9.37
2018-09-03T00:16:58.853Z,9.60
2018-09-03T00:19:27.274Z,9.27
2018-09-03T00:21:55.490Z,8.90
2018-09-03T00:24:23.740Z,8.97
2018-09-03T00:26:51.967Z,8.87
2018-09-03T00:29:20.232Z,8.73
2018-09-03T00:31:53.812Z,8.83
2018-09-03T00:34:27.592Z,8.80
2018-09-03T00:37:01.002Z,9.07
2018-09-03T00:39:34.693Z,8.93
2018-09-03T00:42:08.496Z,9.33
2018-09-03T00:44:42.166Z,8.47
2018-09-03T00:47:11.306Z,7.87
2018-09-03T00:49:39.664Z,8.67
2018-09-03T00:52:07.907Z,9.13
2018-09-03T00:54:37.196Z,8.60
2018-09-03T00:57:05.442Z,9.20
2018-09-03T00:59:33.678Z,8.83
2018-09-03T01:02:01.916Z,8.10
2018-09-03T01:04:30.144Z,9.17
2018-09-03T01:06:58.351Z,8.50
2018-09-03T01:09:26.579Z,9.57
2018-09-03T01:11:54.782Z,10.50
2018-09-03T01:14:23.004Z,9.40
2018-09-03T01:16:51.240Z,9.83
2018-09-03T01:19:19.455Z,9.30
2018-09-03T01:21:47.698Z,10.57
2018-09-03T01:24:15.915Z,9.67
2018-09-03T01:26:44.183Z,10.50
2018-09-03T01:29:19.202Z,10.50
2018-09-03T01:31:47.418Z,11.27
2018-09-03T01:34:15.694Z,11.07
2018-09-03T01:36:43.897Z,12.73
2018-09-03T01:39:12.102Z,11.73
2018-09-03T01:41:40.314Z,11.07
2018-09-03T01:44:08.525Z,10.77
2018-09-03T01:46:36.738Z,11.13
2018-09-03T01:49:05.133Z,12.00
2018-09-03T01:51:33.345Z,11.50
2018-09-03T01:54:01.562Z,10.57
2018-09-03T01:56:29.800Z,11.33
2018-09-03T01:58:58.019Z,12.33
2018-09-03T02:01:26.230Z,11.40
2018-09-03T02:03:54.441Z,11.97
2018-09-03T02:06:22.650Z,12.77
2018-09-03T02:08:50.853Z,12.27
2018-09-03T02:11:19.074Z,12.40
2018-09-03T02:13:47.289Z,12.47
2018-09-03T02:16:15.749Z,13.57
2018-09-03T02:18:43.970Z,12.30
2018-09-03T02:21:12.273Z,11.87
2018-09-03T02:23:40.515Z,12.87
2018-09-03T02:26:08.769Z,11.30
2018-09-03T02:28:36.974Z,11.57
2018-09-03T02:31:05.195Z,13.10
2018-09-03T02:33:33.413Z,11.80
2018-09-03T02:36:01.674Z,12.93
2018-09-03T02:38:29.881Z,12.20
2018-09-03T02:40:58.099Z,12.80
2018-09-03T02:43:26.313Z,12.70
2018-09-03T02:45:54.526Z,11.67
2018-09-03T02:48:22.746Z,12.40
2018-09-03T02:50:51.000Z,12.00
2018-09-03T02:53:19.294Z,11.90
2018-09-03T02:55:47.505Z,12.07
2018-09-03T02:58:15.712Z,12.13
2018-09-03T03:00:43.927Z,12.23
2018-09-03T03:03:12.128Z,12.80
2018-09-03T03:05:40.357Z,12.63
2018-09-03T03:08:08.569Z,11.90
2018-09-03T03:10:36.790Z,11.30
2018-09-03T03:13:05.013Z,11.87
2018-09-03T03:15:33.225Z,12.60
2018-09-03T03:18:01.425Z,12.50
2018-09-03T03:20:29.645Z,11.20
2018-09-03T03:22:57.858Z,11.60
2018-09-03T03:25:26.158Z,10.93
2018-09-03T03:27:54.362Z,11.73
2018-09-03T03:30:22.577Z,11.63
2018-09-03T03:32:50.791Z,12.40
2018-09-03T03:35:19.007Z,10.57
2018-09-03T03:37:47.800Z,11.03
2018-09-03T03:40:16.714Z,11.00
2018-09-03T03:42:44.922Z,11.93
2018-09-03T03:45:13.129Z,12.00
2018-09-03T03:47:41.783Z,12.43
2018-09-03T03:50:10.385Z,12.97
2018-09-03T03:52:38.602Z,12.10
2018-09-03T03:55:07.457Z,11.57
2018-09-03T03:57:36.050Z,11.03
2018-09-03T04:00:04.473Z,12.10
2018-09-03T04:02:32.686Z,10.97
2018-09-03T04:05:00.910Z,11.97
2018-09-03T04:07:29.390Z,12.50
2018-09-03T04:09:57.725Z,11.70
2018-09-03T04:12:26.098Z,11.63
2018-09-03T04:14:54.325Z,11.43
2018-09-03T04:17:22.538Z,12.27
2018-09-03T04:19:55.050Z,12.67
2018-09-03T04:22:23.262Z,12.13
2018-09-03T04:24:51.478Z,12.83
2018-09-03T04:27:19.689Z,14.17
2018-09-03T04:29:47.909Z,12.73
2018-09-03T04:32:16.125Z,13.07
2018-09-03T04:34:44.356Z,11.77
2018-09-03T04:40:24.554Z,12.07
2018-09-03T04:42:52.769Z,13.07
2018-09-03T04:45:20.986Z,13.97
2018-09-03T04:47:49.186Z,13.73
2018-09-03T04:50:17.490Z,12.37
2018-09-03T04:52:45.723Z,12.97
2018-09-03T04:55:13.989Z,13.67
2018-09-03T04:57:42.255Z,13.30
2018-09-03T05:00:10.463Z,13.83
2018-09-03T05:02:38.887Z,12.63
2018-09-03T05:05:07.094Z,13.40
2018-09-03T05:07:35.306Z,12.40
2018-09-03T05:10:03.733Z,13.47
2018-09-03T05:12:31.945Z,13.70
2018-09-03T05:15:00.150Z,13.20
2018-09-03T05:17:28.357Z,14.30
2018-09-03T05:19:56.574Z,12.83
2018-09-03T05:22:25.045Z,13.33
2018-09-03T05:24:53.274Z,13.20
2018-09-03T05:27:21.521Z,13.13
2018-09-03T05:29:49.802Z,12.53
2018-09-03T05:32:18.074Z,12.33
2018-09-03T05:34:46.283Z,11.73
2018-09-03T05:37:14.510Z,11.67
2018-09-03T05:39:42.714Z,11.80
2018-09-03T05:42:10.930Z,11.47
2018-09-03T05:44:39.203Z,11.27
2018-09-03T05:47:07.414Z,9.67
2018-09-03T05:49:35.839Z,10.57
2018-09-03T05:52:03.975Z,11.20
2018-09-03T05:54:32.318Z,11.23
2018-09-03T05:57:00.550Z,10.57
2018-09-03T05:59:28.890Z,10.33
2018-09-03T06:01:57.625Z,9.70
2018-09-03T06:04:25.821Z,10.93
2018-09-03T06:06:54.033Z,11.13
2018-09-03T06:09:22.246Z,10.50
2018-09-03T06:11:50.477Z,11.40
2018-09-03T06:14:18.685Z,10.23
2018-09-03T06:16:46.914Z,10.73
2018-09-03T06:19:15.330Z,11.17
2018-09-03T06:21:43.530Z,10.87
2018-09-03T06:24:11.820Z,11.50
2018-09-03T06:26:41.171Z,11.13
2018-09-03T06:29:09.743Z,9.60
2018-09-03T06:31:38.035Z,10.47
2018-09-03T06:34:06.438Z,10.40
2018-09-03T06:36:34.649Z,9.83
2018-09-03T06:39:02.909Z,10.30
2018-09-03T06:41:31.381Z,10.23
2018-09-03T06:43:59.686Z,11.47
2018-09-03T06:46:27.970Z,10.40
2018-09-03T06:49:14.694Z,10.87
2018-09-03T06:51:47.189Z,11.37
2018-09-03T06:54:15.521Z,11.10
2018-09-03T06:56:43.717Z,10.77
2018-09-03T07:02:06.915Z,10.30
2018-09-03T07:04:35.121Z,9.87
2018-09-03T07:07:03.390Z,9.53
2018-09-03T07:09:31.638Z,9.13
2018-09-03T07:12:24.454Z,9.57
2018-09-03T07:14:52.846Z,9.60
2018-09-03T07:17:21.152Z,8.73
2018-09-03T07:19:49.356Z,8.57
2018-09-03T07:22:28.786Z,8.20
2018-09-03T07:28:11.006Z,8.40
2018-09-03T07:30:44.750Z,8.20
2018-09-03T07:33:13.007Z,8.17
2018-09-03T07:35:41.226Z,8.23
2018-09-03T07:38:09.424Z,8.27
2018-09-03T07:40:41.937Z,9.67
2018-09-03T07:43:10.133Z,8.07
2018-09-03T07:45:38.338Z,8.57
2018-09-03T07:48:06.554Z,8.33
2018-09-03T07:50:47.281Z,8.23
2018-09-03T07:53:15.714Z,8.80
2018-09-03T07:55:44.265Z,8.87
2018-09-03T07:58:12.477Z,7.63
2018-09-03T08:00:40.690Z,8.13
2018-09-03T08:03:08.898Z,7.60
2018-09-03T08:05:37.121Z,7.57
2018-09-03T08:08:05.815Z,7.17
2018-09-03T08:10:34.081Z,7.57
2018-09-03T08:13:02.524Z,6.93
2018-09-03T08:15:30.703Z,8.43
2018-09-03T08:17:58.909Z,7.73
2018-09-03T08:20:27.168Z,6.67
2018-09-03T08:22:55.503Z,6.73
2018-09-03T08:25:36.044Z,6.57
2018-09-03T08:28:04.265Z,6.10
2018-09-03T08:30:32.478Z,7.20
2018-09-03T08:33:00.694Z,7.43
2018-09-03T08:35:28.940Z,6.73
2018-09-03T08:37:57.265Z,7.33
2018-09-03T08:40:28.814Z,7.23
2018-09-03T08:42:57.112Z,6.53
2018-09-03T08:45:25.311Z,6.33
2018-09-03T08:47:53.509Z,7.17
2018-09-03T08:50:21.776Z,6.30
2018-09-03T08:52:50.071Z,5.83
2018-09-03T08:55:18.314Z,7.50
2018-09-03T08:57:46.586Z,6.57
2018-09-03T09:00:14.921Z,6.17
2018-09-03T09:02:43.387Z,6.43
2018-09-03T09:05:11.782Z,6.40
2018-09-03T09:07:40.037Z,6.70
2018-09-03T09:10:08.249Z,7.30
2018-09-03T09:12:36.587Z,6.47
2018-09-03T09:15:04.997Z,6.40
2018-09-03T09:17:33.580Z,6.50
2018-09-03T09:20:01.758Z,6.00
2018-09-03T09:22:29.973Z,6.47
2018-09-03T09:24:58.238Z,5.07
2018-09-03T09:27:26.399Z,5.57
2018-09-03T09:29:54.733Z,6.70
2018-09-03T09:32:23.090Z,6.47
2018-09-03T09:34:51.637Z,6.33
2018-09-03T09:37:19.862Z,6.13
2018-09-03T09:39:48.099Z,5.70
2018-09-03T09:42:16.322Z,5.73
2018-09-03T09:44:44.617Z,6.03
2018-09-03T09:47:12.860Z,5.83
2018-09-03T09:49:41.109Z,5.93
2018-09-03T09:52:21.601Z,5.67
2018-09-03T09:54:49.860Z,5.63
2018-09-03T09:57:18.033Z,5.53
2018-09-03T09:59:46.282Z,5.43
2018-09-03T10:02:15.775Z,5.40
2018-09-03T10:04:44.077Z,4.90
2018-09-03T10:07:12.557Z,4.60
2018-09-03T10:09:40.950Z,5.07
2018-09-03T10:12:09.350Z,5.00
2018-09-03T10:14:37.758Z,4.80
2018-09-03T10:17:06.225Z,4.80
2018-09-03T10:19:34.662Z,4.63
2018-09-03T10:22:03.155Z,4.93
2018-09-03T10:24:31.386Z,4.53
2018-09-03T10:26:59.601Z,5.30
2018-09-03T10:29:28.024Z,5.00
2018-09-03T10:31:56.415Z,5.03
2018-09-03T10:34:24.912Z,4.97
2018-09-03T10:36:53.311Z,4.83
2018-09-03T10:39:21.887Z,4.80
2018-09-03T10:41:50.213Z,4.60
2018-09-03T10:44:18.804Z,4.27
2018-09-03T10:46:48.621Z,4.57
2018-09-03T10:49:17.333Z,4.67
2018-09-03T10:51:45.922Z,4.50
2018-09-03T10:54:20.263Z,4.23
2018-09-03T10:56:48.770Z,4.73
2018-09-03T10:59:17.234Z,5.67
2018-09-03T11:01:55.378Z,5.17
2018-09-03T11:04:23.783Z,5.10
2018-09-03T11:06:52.212Z,5.40
2018-09-03T11:09:23.480Z,5.30
2018-09-03T11:12:02.330Z,5.70
2018-09-03T11:14:30.596Z,4.93
2018-09-03T11:16:59.086Z,4.60
2018-09-03T11:19:31.494Z,4.60
2018-09-03T11:21:59.803Z,6.07
2018-09-03T11:24:28.062Z,4.77
2018-09-03T11:27:00.842Z,4.77
2018-09-03T11:29:29.127Z,4.53
2018-09-03T11:31:57.334Z,4.83
2018-09-03T11:34:31.401Z,4.73
2018-09-03T11:36:59.610Z,5.03
2018-09-03T11:39:27.830Z,5.20
2018-09-03T11:41:56.064Z,4.97
2018-09-03T11:44:24.272Z,4.60
2018-09-03T11:46:53.885Z,4.37
2018-09-03T11:49:22.662Z,4.40
2018-09-03T11:51:50.955Z,3.83
2018-09-03T11:54:19.501Z,4.10
2018-09-03T11:56:47.828Z,4.23
2018-09-03T11:59:16.174Z,3.77
2018-09-03T12:01:45.323Z,4.17
2018-09-03T12:04:24.395Z,4.50
2018-09-03T12:06:52.594Z,4.27
2018-09-03T12:09:20.816Z,4.40
2018-09-03T12:11:49.057Z,4.40
2018-09-03T12:14:20.903Z,4.00
2018-09-03T12:16:49.152Z,4.27
2018-09-03T12:19:17.752Z,4.13
2018-09-03T12:21:46.356Z,4.00
2018-09-03T12:24:15.499Z,4.10
2018-09-03T12:26:43.927Z,4.40
2018-09-03T12:29:12.310Z,3.83
2018-09-03T12:31:40.536Z,3.13
2018-09-03T12:34:08.856Z,2.97
2018-09-03T12:36:37.116Z,3.83
2018-09-03T12:39:08.383Z,3.60
2018-09-03T12:41:38.191Z,4.80
2018-09-03T12:44:06.494Z,4.33
2018-09-03T12:46:34.675Z,4.40
2018-09-03T12:49:02.898Z,5.70
2018-09-03T12:51:31.131Z,4.97
2018-09-03T12:53:59.366Z,4.93
2018-09-03T12:56:27.619Z,4.40
2018-09-03T12:58:55.831Z,4.47
2018-09-03T13:01:24.056Z,4.80
2018-09-03T13:03:52.282Z,4.83
2018-09-03T13:06:20.568Z,4.53
2018-09-03T13:08:48.872Z,3.97
2018-09-03T13:11:17.203Z,4.23
2018-09-03T13:13:45.427Z,4.40
2018-09-03T13:16:13.658Z,4.20
2018-09-03T13:18:41.887Z,4.30
2018-09-03T13:21:10.236Z,4.73
2018-09-03T13:23:38.466Z,4.17
2018-09-03T13:26:06.716Z,4.17
2018-09-03T13:28:34.951Z,4.00
2018-09-03T13:31:03.215Z,3.93
2018-09-03T13:33:31.483Z,3.80
2018-09-03T13:35:59.757Z,4.40
2018-09-03T13:38:27.944Z,4.23
2018-09-03T13:40:56.311Z,3.83
2018-09-03T13:43:24.869Z,3.90
2018-09-03T13:45:53.096Z,4.37
2018-09-03T13:48:21.354Z,4.37
2018-09-03T13:50:49.930Z,3.60
2018-09-03T13:53:18.148Z,4.33
2018-09-03T13:55:46.354Z,4.37
2018-09-03T13:58:14.980Z,3.67
2018-09-03T14:00:43.230Z,4.20
2018-09-03T14:03:11.593Z,3.80
2018-09-03T14:05:39.899Z,3.53
2018-09-03T14:08:08.198Z,3.63
2018-09-03T14:10:39.552Z,3.80
2018-09-03T14:13:07.778Z,3.73
2018-09-03T14:15:36.211Z,3.37
2018-09-03T14:18:04.583Z,3.40
2018-09-03T14:20:33.254Z,3.73
2018-09-03T14:23:01.512Z,3.10
2018-09-03T14:25:29.849Z,3.47
2018-09-03T14:27:58.772Z,3.13
2018-09-03T14:30:27.148Z,3.40
2018-09-03T14:32:55.751Z,3.63
2018-09-03T14:35:24.096Z,3.30
2018-09-03T14:37:52.456Z,3.77
2018-09-03T14:40:21.054Z,3.23
2018-09-03T14:42:49.327Z,3.67
2018-09-03T14:45:19.213Z,3.70
2018-09-03T14:47:47.536Z,4.20
2018-09-03T14:50:15.756Z,3.60
2018-09-03T14:53:00.114Z,3.40
2018-09-03T14:55:28.567Z,3.53
2018-09-03T14:57:56.774Z,3.67
2018-09-03T15:00:25.358Z,3.07
2018-09-03T15:02:53.760Z,3.60
2018-09-03T15:05:22.287Z,3.13
2018-09-03T15:07:50.492Z,3.00
2018-09-03T15:10:19.183Z,2.83
2018-09-03T15:12:47.698Z,2.97
2018-09-03T15:15:15.930Z,2.87
2018-09-03T15:17:44.396Z,3.77
2018-09-03T15:20:12.698Z,3.27
2018-09-03T15:22:41.212Z,3.10
2018-09-03T15:25:09.435Z,3.73
2018-09-03T15:27:37.646Z,3.50
2018-09-03T15:30:06.358Z,3.10
2018-09-03T15:32:40.439Z,3.00
2018-09-03T15:35:08.845Z,2.67
2018-09-03T15:37:39.948Z,3.47
2018-09-03T15:40:08.404Z,3.40
2018-09-03T15:42:55.692Z,3.57
2018-09-03T15:45:24.120Z,3.50
2018-09-03T15:47:52.528Z,3.20
2018-09-03T15:50:23.521Z,2.77
2018-09-03T15:52:51.875Z,3.07
2018-09-03T15:55:20.312Z,3.00
2018-09-03T15:57:48.684Z,3.00
2018-09-03T16:00:17.548Z,3.40
2018-09-03T16:02:46.013Z,2.90
2018-09-03T16:05:16.853Z,2.83
2018-09-03T16:07:45.356Z,3.03
2018-09-03T16:10:14.092Z,3.30
2018-09-03T16:12:42.453Z,3.13
2018-09-03T16:15:11.169Z,3.53
2018-09-03T16:17:39.543Z,2.90
2018-09-03T16:20:07.984Z,3.27
2018-09-03T16:22:50.745Z,2.80
2018-09-03T16:25:19.216Z,3.70
2018-09-03T16:27:47.733Z,3.40
2018-09-03T16:30:16.045Z,3.87
2018-09-03T16:32:44.465Z,3.10
2018-09-03T16:35:15.974Z,3.60
2018-09-03T16:37:44.460Z,3.80
2018-09-03T16:40:31.043Z,3.47
2018-09-03T16:42:59.445Z,3.30
2018-09-03T16:45:27.896Z,3.13
2018-09-03T16:47:56.353Z,3.73
2018-09-03T16:50:24.784Z,3.60
2018-09-03T16:52:53.185Z,3.67
2018-09-03T16:55:21.738Z,3.70
2018-09-03T16:57:50.084Z,4.07
2018-09-03T17:00:18.462Z,4.20
2018-09-03T17:02:46.987Z,4.17
2018-09-03T17:05:16.288Z,3.90
2018-09-03T17:07:44.726Z,3.77
2018-09-03T17:10:13.223Z,4.40
2018-09-03T17:12:41.692Z,4.40
2018-09-03T17:15:10.313Z,4.20
2018-09-03T17:17:38.731Z,4.10
2018-09-03T17:20:07.233Z,4.00
2018-09-03T17:22:35.718Z,3.70
2018-09-03T17:25:04.232Z,3.90
2018-09-03T17:27:32.627Z,3.80
2018-09-03T17:30:01.145Z,4.43
2018-09-03T17:32:29.726Z,4.03
2018-09-03T17:34:58.100Z,4.53
2018-09-03T17:37:27.564Z,3.97
2018-09-03T17:39:55.984Z,3.90
2018-09-03T17:42:24.508Z,3.73
2018-09-03T17:44:52.912Z,3.80
2018-09-03T17:47:22.180Z,4.43
2018-09-03T17:49:50.706Z,4.20
2018-09-03T17:52:19.131Z,4.43
2018-09-03T17:54:47.664Z,3.73
2018-09-03T17:57:16.140Z,3.57
2018-09-03T17:59:45.289Z,4.10
2018-09-03T18:02:13.786Z,3.67
2018-09-03T18:04:42.243Z,4.27
2018-09-03T18:07:10.569Z,4.23
2018-09-03T18:09:38.901Z,4.50
2018-09-03T18:12:07.386Z,4.30
2018-09-03T18:14:35.818Z,3.73
2018-09-03T18:17:04.455Z,4.47
2018-09-03T18:19:33.054Z,5.70
2018-09-03T18:22:01.456Z,6.47
2018-09-03T18:24:29.935Z,7.97
2018-09-03T18:26:58.401Z,8.40
2018-09-03T18:29:26.763Z,9.37
2018-09-03T18:31:55.265Z,9.23
2018-09-03T18:34:23.724Z,8.83
2018-09-03T18:36:52.190Z,9.33
2018-09-03T18:39:20.848Z,9.67
2018-09-03T18:41:49.340Z,8.30
2018-09-03T18:44:20.223Z,8.73
2018-09-03T18:46:48.680Z,9.47
2018-09-03T18:49:17.149Z,10.13
2018-09-03T18:51:45.656Z,9.20
2018-09-03T18:54:14.184Z,9.27
2018-09-03T18:56:42.800Z,10.10
2018-09-03T18:59:11.208Z,8.97
2018-09-03T19:01:39.660Z,8.83
2018-09-03T19:04:08.256Z,9.53
2018-09-03T19:06:36.778Z,9.20
2018-09-03T19:09:06.630Z,9.37
2018-09-03T19:11:35.058Z,10.60
2018-09-03T19:14:03.560Z,9.10
2018-09-03T19:16:32.025Z,10.07
2018-09-03T19:19:00.452Z,8.97
2018-09-03T19:21:28.934Z,11.20
2018-09-03T19:23:57.392Z,9.37
2018-09-03T19:26:25.763Z,9.43
2018-09-03T19:28:54.279Z,10.00
2018-09-03T19:31:22.755Z,9.40
2018-09-03T19:33:51.208Z,9.33
2018-09-03T19:36:19.784Z,8.73
2018-09-03T19:38:48.202Z,8.63
2018-09-03T19:41:16.589Z,9.27
2018-09-03T19:43:44.955Z,8.40
2018-09-03T19:46:13.372Z,8.90
2018-09-03T19:48:41.766Z,7.50
2018-09-03T19:51:10.188Z,8.10
2018-09-03T19:53:38.571Z,9.03
2018-09-03T19:56:06.947Z,7.73
2018-09-03T19:58:35.405Z,9.70
2018-09-03T20:01:03.995Z,9.40
2018-09-03T20:03:32.404Z,9.10
2018-09-03T20:06:00.885Z,9.50
2018-09-03T20:08:29.335Z,9.17
2018-09-03T20:10:57.696Z,8.93
2018-09-03T20:13:26.072Z,8.97
2018-09-03T20:15:54.503Z,10.03
2018-09-03T20:18:22.874Z,10.03
2018-09-03T20:20:51.349Z,9.27
2018-09-03T20:23:20.039Z,8.47
2018-09-03T20:25:48.411Z,10.63
2018-09-03T20:28:16.781Z,9.47
2018-09-03T20:30:45.375Z,10.43
2018-09-03T20:33:13.861Z,10.20
2018-09-03T20:35:42.215Z,9.30
2018-09-03T20:38:10.656Z,9.33
2018-09-03T20:40:39.599Z,9.00
2018-09-03T20:43:08.036Z,9.97
2018-09-03T20:45:36.444Z,10.00
2018-09-03T20:48:04.891Z,8.80
2018-09-03T20:50:33.315Z,7.90
2018-09-03T20:53:01.684Z,8.57
2018-09-03T20:55:30.236Z,9.30
2018-09-03T20:57:58.816Z,8.37
2018-09-03T21:00:27.392Z,8.63
2018-09-03T21:02:55.796Z,8.10
2018-09-03T21:05:24.199Z,8.47
2018-09-03T21:07:52.660Z,8.00
2018-09-03T21:10:21.084Z,8.90
2018-09-03T21:12:49.625Z,7.90
2018-09-03T21:15:18.140Z,8.67
2018-09-03T21:17:46.470Z,7.27
2018-09-03T21:20:15.278Z,7.70
2018-09-03T21:22:43.700Z,7.63
2018-09-03T21:25:19.656Z,7.80
2018-09-03T21:27:48.100Z,8.33
2018-09-03T21:30:16.572Z,8.33
2018-09-03T21:32:44.969Z,7.40
2018-09-03T21:35:13.570Z,7.53
2018-09-03T21:37:42.248Z,7.80
2018-09-03T21:40:10.654Z,7.73
2018-09-03T21:42:38.997Z,7.40
2018-09-03T21:45:07.394Z,7.70
2018-09-03T21:47:35.803Z,7.17
2018-09-03T21:50:04.336Z,8.70
2018-09-03T21:52:32.662Z,8.47
2018-09-03T21:55:00.980Z,8.70
2018-09-03T21:57:29.304Z,8.63
2018-09-03T21:59:57.675Z,7.90
2018-09-03T22:02:26.151Z,8.50
2018-09-03T22:04:54.762Z,9.00
2018-09-03T22:07:23.178Z,9.93
2018-09-03T22:09:51.572Z,9.03
2018-09-03T22:12:20.053Z,8.67
2018-09-03T22:14:48.754Z,9.13
2018-09-03T22:17:17.184Z,8.00
2018-09-03T22:19:45.528Z,8.93
2018-09-03T22:22:13.971Z,8.97
2018-09-03T22:24:42.401Z,8.73
2018-09-03T22:27:10.788Z,9.87
2018-09-03T22:29:39.208Z,9.10
2018-09-03T22:32:07.628Z,9.43
2018-09-03T22:34:36.140Z,9.43
2018-09-03T22:37:04.577Z,10.53
2018-09-03T22:39:33.055Z,10.13
2018-09-03T22:42:01.515Z,11.20
2018-09-03T22:44:29.979Z,10.43
2018-09-03T22:46:58.416Z,10.73
2018-09-03T22:49:26.802Z,12.10
2018-09-03T22:51:55.145Z,11.50
2018-09-03T22:54:23.616Z,11.70
2018-09-03T22:56:52.034Z,13.30
2018-09-03T22:59:20.381Z,11.63
2018-09-03T23:01:48.772Z,12.37
2018-09-03T23:04:17.131Z,13.67
2018-09-03T23:06:45.568Z,13.17
2018-09-03T23:09:13.991Z,13.57
2018-09-03T23:11:42.465Z,13.30
2018-09-03T23:14:10.833Z,14.07
2018-09-03T23:16:39.236Z,14.23
2018-09-03T23:19:07.735Z,14.00
2018-09-03T23:21:36.131Z,14.73
2018-09-03T23:24:04.539Z,12.27
2018-09-03T23:26:32.928Z,13.10
2018-09-03T23:29:01.412Z,13.80
2018-09-03T23:31:29.864Z,14.57
2018-09-03T23:33:58.248Z,13.90
2018-09-03T23:36:26.679Z,14.83
2018-09-03T23:38:55.093Z,14.87
2018-09-03T23:41:23.404Z,15.13
2018-09-03T23:43:51.801Z,14.00
2018-09-03T23:46:20.242Z,14.10
2018-09-03T23:48:48.681Z,15.63
2018-09-03T23:51:17.102Z,15.50
2018-09-03T23:53:45.540Z,15.50
2018-09-03T23:56:13.891Z,15.00
2018-09-03T23:58:42.364Z,15.13
